No particular awareness of the weather is required.    There are no Weather-warnings


Meteo18 Weather Cam more information Meteo18 Weather Cam


Thunder radar more information blitzortung!


Rain radar more information rain snow radar


Visit our other weather sites:

Template documentation
and downloads

And another site



Weather Underground History page Text

Daily Summary for March 10, 2017 Units:  Both    English   Metric
« Previous Day
Next Day »
Daily Weekly Monthly Yearly Custom
  High: Low: Average:
Temperature: TemperatureC °F /  -17.8 °C 9.1 °F /  -12.7 °C 11.8 °F /  -11.2 °C
Dew Point: DewpointC °F /  -17.8 °C 5.8 °F /  -14.6 °C 8.9 °F /  -12.8 °C
Humidity: Humidity % 59 % 83 %
Wind Speed: WindSpeedKMH mph /  0 km/h - 2.8 mph /  4.5 km/h
Wind Gust: WindSpeedGustKMH mph /  0 km/h - -
Wind:- - ENE
Pressure: PressurehPa in /  0 hPa 1023.2 in /  34645.6 hPa -
Precipitation: 0.5 in /  12.7 mm    
Historical Graphs
 
 
Tabular Data for March 10, 2017
Time Temperature Dew Point Pressure Wind Wind Speed Wind Gust Humidity Rainfall Rate (Hourly)
TemperatureC °F /  -17.8 °C DewpointC °F /  -17.8 °C PressurehPa in /  0 hPa Calm     Humidity % HourlyPrecipMM in /  0 mm
00:02 11.2 °F /  -11.6 °C 9.8 °F /  -12.3 °C 1027.3 in /  34784.4 hPa Calm     91 % 0.0 in /  0 mm
00:12 11.1 °F /  -11.6 °C 9.7 °F /  -12.4 °C 1027.3 in /  34784.4 hPa Calm     91 % 0.0 in /  0 mm
00:17 11.0 °F /  -11.7 °C 9.8 °F /  -12.3 °C 1027.3 in /  34784.4 hPa Calm     92 % 0.0 in /  0 mm
00:22 11.1 °F /  -11.6 °C 9.8 °F /  -12.3 °C 1027.3 in /  34784.4 hPa Calm     92 % 0.0 in /  0 mm
00:32 11.2 °F /  -11.6 °C 9.8 °F /  -12.3 °C 1027.3 in /  34784.4 hPa Calm     91 % 0.0 in /  0 mm
00:37 11.2 °F /  -11.6 °C 9.8 °F /  -12.3 °C 1027.3 in /  34784.4 hPa Calm     91 % 0.0 in /  0 mm
00:47 11.2 °F /  -11.6 °C 9.8 °F /  -12.3 °C 1027.7 in /  34797.9 hPa Calm     91 % 0.0 in /  0 mm
00:52 11.2 °F /  -11.6 °C 9.6 °F /  -12.4 °C 1027.7 in /  34797.9 hPa Calm     90 % 0.0 in /  0 mm
00:57 11.2 °F /  -11.6 °C 9.6 °F /  -12.4 °C 1027.7 in /  34797.9 hPa Calm     90 % 0.0 in /  0 mm
01:02 11.2 °F /  -11.6 °C 9.8 °F /  -12.3 °C 1027.7 in /  34797.9 hPa Calm     91 % 0.0 in /  0 mm
01:07 11.2 °F /  -11.6 °C 9.8 °F /  -12.3 °C 1027.7 in /  34797.9 hPa Calm     91 % 0.0 in /  0 mm
01:12 11.2 °F /  -11.6 °C 9.6 °F /  -12.4 °C 1027.7 in /  34797.9 hPa Calm     90 % 0.0 in /  0 mm
01:17 11.2 °F /  -11.6 °C 9.6 °F /  -12.4 °C 1027.7 in /  34797.9 hPa Calm     90 % 0.0 in /  0 mm
01:22 11.2 °F /  -11.6 °C 9.8 °F /  -12.3 °C 1027.7 in /  34797.9 hPa Calm     91 % 0.0 in /  0 mm
01:27 11.3 °F /  -11.5 °C 9.9 °F /  -12.3 °C 1027.7 in /  34797.9 hPa Calm     91 % 0.0 in /  0 mm
01:32 11.3 °F /  -11.5 °C 9.7 °F /  -12.4 °C 1027.7 in /  34797.9 hPa Calm     90 % 0.0 in /  0 mm
01:37 11.2 °F /  -11.6 °C 9.8 °F /  -12.3 °C 1027.7 in /  34797.9 hPa Calm     91 % 0.0 in /  0 mm
01:42 11.2 °F /  -11.6 °C 9.8 °F /  -12.3 °C 1027.7 in /  34797.9 hPa Calm     91 % 0.0 in /  0 mm
01:47 11.2 °F /  -11.6 °C 9.8 °F /  -12.3 °C 1027.7 in /  34797.9 hPa Calm     91 % 0.0 in /  0 mm
01:52 11.3 °F /  -11.5 °C 9.9 °F /  -12.3 °C 1027.7 in /  34797.9 hPa Calm     91 % 0.0 in /  0 mm
01:57 11.3 °F /  -11.5 °C 9.9 °F /  -12.3 °C 1027.7 in /  34797.9 hPa Calm     91 % 0.0 in /  0 mm
02:02 11.3 °F /  -11.5 °C 9.9 °F /  -12.3 °C 1027.7 in /  34797.9 hPa Calm     91 % 0.0 in /  0 mm
02:07 11.3 °F /  -11.5 °C 10.0 °F /  -12.2 °C 1027.7 in /  34797.9 hPa Calm     92 % 0.0 in /  0 mm
02:12 11.3 °F /  -11.5 °C 10.0 °F /  -12.2 °C 1027.7 in /  34797.9 hPa Calm     92 % 0.0 in /  0 mm
02:17 11.2 °F /  -11.6 °C 9.9 °F /  -12.3 °C 1027.3 in /  34784.4 hPa Calm     92 % 0.0 in /  0 mm
02:22 11.2 °F /  -11.6 °C 9.9 °F /  -12.3 °C 1027.3 in /  34784.4 hPa Calm     92 % 0.0 in /  0 mm
02:27 11.2 °F /  -11.6 °C 9.9 °F /  -12.3 °C 1027.3 in /  34784.4 hPa WNW 1.6 mph /  2.6 km/h 3.2 mph /  5.1 km/h 92 % 0.0 in /  0 mm
02:32 11.3 °F /  -11.5 °C 10.0 °F /  -12.2 °C 1027.3 in /  34784.4 hPa Calm   3.2 mph /  5.1 km/h 92 % 0.0 in /  0 mm
02:37 11.2 °F /  -11.6 °C 9.9 °F /  -12.3 °C 1027.3 in /  34784.4 hPa Calm   3.2 mph /  5.1 km/h 92 % 0.0 in /  0 mm
02:42 11.1 °F /  -11.6 °C 9.8 °F /  -12.3 °C 1027.3 in /  34784.4 hPa Calm   3.2 mph /  5.1 km/h 92 % 0.0 in /  0 mm
02:47 10.9 °F /  -11.7 °C 9.8 °F /  -12.3 °C 1027.3 in /  34784.4 hPa Calm   3.2 mph /  5.1 km/h 93 % 0.0 in /  0 mm
02:57 10.8 °F /  -11.8 °C 9.9 °F /  -12.3 °C 1027.3 in /  34784.4 hPa NE 3.2 mph /  5.1 km/h 3.2 mph /  5.1 km/h 94 % 0.0 in /  0 mm
03:02 10.7 °F /  -11.8 °C 9.8 °F /  -12.3 °C 1027.3 in /  34784.4 hPa East 3.2 mph /  5.1 km/h 4.8 mph /  7.7 km/h 94 % 0.0 in /  0 mm
03:07 10.7 °F /  -11.8 °C 9.8 °F /  -12.3 °C 1027.3 in /  34784.4 hPa ENE 1.6 mph /  2.6 km/h 4.8 mph /  7.7 km/h 94 % 0.0 in /  0 mm
03:12 10.6 °F /  -11.9 °C 9.8 °F /  -12.3 °C 1027.3 in /  34784.4 hPa ENE 1.6 mph /  2.6 km/h 4.8 mph /  7.7 km/h 95 % 0.0 in /  0 mm
03:22 10.5 °F /  -11.9 °C 9.7 °F /  -12.4 °C 1027.3 in /  34784.4 hPa Calm   3.2 mph /  5.1 km/h 95 % 0.3 in /  7.62 mm
03:27 10.5 °F /  -11.9 °C 9.7 °F /  -12.4 °C 1027.3 in /  34784.4 hPa Calm   3.2 mph /  5.1 km/h 95 % 0.3 in /  7.62 mm
03:32 10.4 °F /  -12 °C 9.6 °F /  -12.4 °C 1027.3 in /  34784.4 hPa Calm     95 % 0.3 in /  7.62 mm
03:37 10.4 °F /  -12 °C 9.6 °F /  -12.4 °C 1027.3 in /  34784.4 hPa Calm     95 % 0.3 in /  7.62 mm
03:42 10.4 °F /  -12 °C 9.8 °F /  -12.3 °C 1027.3 in /  34784.4 hPa Calm     96 % 0.5 in /  12.7 mm
03:47 10.4 °F /  -12 °C 9.8 °F /  -12.3 °C 1027.3 in /  34784.4 hPa Calm     96 % 0.5 in /  12.7 mm
03:52 10.4 °F /  -12 °C 9.8 °F /  -12.3 °C 1027.3 in /  34784.4 hPa Calm     96 % 0.5 in /  12.7 mm
03:57 10.4 °F /  -12 °C 9.8 °F /  -12.3 °C 1027.0 in /  34774.2 hPa Calm     96 % 0.5 in /  12.7 mm
04:02 10.4 °F /  -12 °C 9.8 °F /  -12.3 °C 1027.0 in /  34774.2 hPa Calm     96 % 0.5 in /  12.7 mm
04:12 10.4 °F /  -12 °C 9.8 °F /  -12.3 °C 1027.0 in /  34774.2 hPa Calm     96 % 0.5 in /  12.7 mm
04:17 10.3 °F /  -12.1 °C 9.7 °F /  -12.4 °C 1027.0 in /  34774.2 hPa Calm     96 % 0.5 in /  12.7 mm
04:22 10.3 °F /  -12.1 °C 9.7 °F /  -12.4 °C 1027.0 in /  34774.2 hPa Calm     96 % 0.5 in /  12.7 mm
04:27 10.3 °F /  -12.1 °C 9.7 °F /  -12.4 °C 1027.0 in /  34774.2 hPa Calm     96 % 0.5 in /  12.7 mm
04:32 10.3 °F /  -12.1 °C 9.7 °F /  -12.4 °C 1027.0 in /  34774.2 hPa Calm     96 % 0.5 in /  12.7 mm
04:37 10.3 °F /  -12.1 °C 9.7 °F /  -12.4 °C 1027.0 in /  34774.2 hPa Calm     96 % 0.3 in /  7.62 mm
04:42 10.3 °F /  -12.1 °C 9.7 °F /  -12.4 °C 1027.0 in /  34774.2 hPa Calm     96 % 0.3 in /  7.62 mm
04:47 10.3 °F /  -12.1 °C 9.7 °F /  -12.4 °C 1027.0 in /  34774.2 hPa Calm     96 % 0.3 in /  7.62 mm
04:52 10.3 °F /  -12.1 °C 9.7 °F /  -12.4 °C 1027.0 in /  34774.2 hPa Calm     96 % 0.3 in /  7.62 mm
04:57 10.3 °F /  -12.1 °C 9.7 °F /  -12.4 °C 1027.0 in /  34774.2 hPa Calm     96 % 0.0 in /  0 mm
05:02 10.3 °F /  -12.1 °C 9.7 °F /  -12.4 °C 1027.0 in /  34774.2 hPa Calm     96 % 0.0 in /  0 mm
05:12 10.4 °F /  -12 °C 9.9 °F /  -12.3 °C 1027.0 in /  34774.2 hPa Calm     97 % 0.0 in /  0 mm
05:17 10.4 °F /  -12 °C 9.8 °F /  -12.3 °C 1027.0 in /  34774.2 hPa Calm     96 % 0.0 in /  0 mm
05:22 10.3 °F /  -12.1 °C 9.7 °F /  -12.4 °C 1027.0 in /  34774.2 hPa Calm     96 % 0.0 in /  0 mm
05:27 10.3 °F /  -12.1 °C 9.8 °F /  -12.3 °C 1027.0 in /  34774.2 hPa Calm     97 % 0.0 in /  0 mm
05:32 10.2 °F /  -12.1 °C 9.7 °F /  -12.4 °C 1027.0 in /  34774.2 hPa Calm     97 % 0.0 in /  0 mm
05:37 10.2 °F /  -12.1 °C 9.7 °F /  -12.4 °C 1027.0 in /  34774.2 hPa Calm     97 % 0.0 in /  0 mm
05:42 10.3 °F /  -12.1 °C 9.8 °F /  -12.3 °C 1027.0 in /  34774.2 hPa Calm     97 % 0.0 in /  0 mm
05:47 10.3 °F /  -12.1 °C 9.8 °F /  -12.3 °C 1027.0 in /  34774.2 hPa Calm     97 % 0.0 in /  0 mm
05:52 10.3 °F /  -12.1 °C 9.8 °F /  -12.3 °C 1027.0 in /  34774.2 hPa East 1.6 mph /  2.6 km/h   97 % 0.0 in /  0 mm
05:57 10.3 °F /  -12.1 °C 9.8 °F /  -12.3 °C 1027.0 in /  34774.2 hPa ENE 1.6 mph /  2.6 km/h 3.2 mph /  5.1 km/h 97 % 0.0 in /  0 mm
06:02 10.3 °F /  -12.1 °C 9.8 °F /  -12.3 °C 1027.0 in /  34774.2 hPa Calm   3.2 mph /  5.1 km/h 97 % 0.0 in /  0 mm
06:07 10.2 °F /  -12.1 °C 9.7 °F /  -12.4 °C 1027.0 in /  34774.2 hPa Calm   3.2 mph /  5.1 km/h 97 % 0.0 in /  0 mm
06:12 10.2 °F /  -12.1 °C 9.7 °F /  -12.4 °C 1027.0 in /  34774.2 hPa East 1.6 mph /  2.6 km/h 3.2 mph /  5.1 km/h 97 % 0.0 in /  0 mm
06:17 10.2 °F /  -12.1 °C 9.7 °F /  -12.4 °C 1027.0 in /  34774.2 hPa East 1.6 mph /  2.6 km/h 4.8 mph /  7.7 km/h 97 % 0.0 in /  0 mm
06:22 10.2 °F /  -12.1 °C 9.7 °F /  -12.4 °C 1027.0 in /  34774.2 hPa Calm   4.8 mph /  7.7 km/h 97 % 0.0 in /  0 mm
06:32 10.2 °F /  -12.1 °C 9.7 °F /  -12.4 °C 1027.0 in /  34774.2 hPa Calm   4.8 mph /  7.7 km/h 97 % 0.0 in /  0 mm
06:42 10.1 °F /  -12.2 °C 9.6 °F /  -12.4 °C 1027.0 in /  34774.2 hPa Calm   4.8 mph /  7.7 km/h 97 % 0.0 in /  0 mm
06:52 10.1 °F /  -12.2 °C 9.6 °F /  -12.4 °C 1027.3 in /  34784.4 hPa NE 6.4 mph /  10.3 km/h 6.4 mph /  10.3 km/h 97 % 0.0 in /  0 mm
06:57 10.1 °F /  -12.2 °C 9.6 °F /  -12.4 °C 1027.3 in /  34784.4 hPa NE 8.0 mph /  12.9 km/h 8.0 mph /  12.9 km/h 97 % 0.0 in /  0 mm
07:02 10.1 °F /  -12.2 °C 9.6 °F /  -12.4 °C 1027.0 in /  34774.2 hPa NE 3.2 mph /  5.1 km/h 9.7 mph /  15.6 km/h 97 % 0.0 in /  0 mm
07:07 10.0 °F /  -12.2 °C 9.5 °F /  -12.5 °C 1027.0 in /  34774.2 hPa NE 1.6 mph /  2.6 km/h 11.3 mph /  18.2 km/h 97 % 0.0 in /  0 mm
07:12 9.9 °F /  -12.3 °C 9.4 °F /  -12.6 °C 1027.0 in /  34774.2 hPa ENE 1.6 mph /  2.6 km/h 11.3 mph /  18.2 km/h 97 % 0.0 in /  0 mm
07:17 9.9 °F /  -12.3 °C 9.4 °F /  -12.6 °C 1027.0 in /  34774.2 hPa NE 3.2 mph /  5.1 km/h 4.8 mph /  7.7 km/h 97 % 0.0 in /  0 mm
07:27 9.8 °F /  -12.3 °C 9.3 °F /  -12.6 °C 1027.0 in /  34774.2 hPa NE 1.6 mph /  2.6 km/h 4.8 mph /  7.7 km/h 97 % 0.0 in /  0 mm
07:32 9.8 °F /  -12.3 °C 9.3 °F /  -12.6 °C 1027.0 in /  34774.2 hPa NE 1.6 mph /  2.6 km/h 4.8 mph /  7.7 km/h 97 % 0.0 in /  0 mm
07:37 9.8 °F /  -12.3 °C 9.3 °F /  -12.6 °C 1027.0 in /  34774.2 hPa NNE 1.6 mph /  2.6 km/h 6.4 mph /  10.3 km/h 97 % 0.0 in /  0 mm
07:42 9.8 °F /  -12.3 °C 9.3 °F /  -12.6 °C 1027.0 in /  34774.2 hPa NNE 1.6 mph /  2.6 km/h 6.4 mph /  10.3 km/h 97 % 0.0 in /  0 mm
07:47 9.8 °F /  -12.3 °C 9.3 °F /  -12.6 °C 1027.0 in /  34774.2 hPa NE 4.8 mph /  7.7 km/h 6.4 mph /  10.3 km/h 97 % 0.0 in /  0 mm
07:52 9.8 °F /  -12.3 °C 9.3 °F /  -12.6 °C 1027.0 in /  34774.2 hPa NE 3.2 mph /  5.1 km/h 6.4 mph /  10.3 km/h 97 % 0.0 in /  0 mm
07:57 9.8 °F /  -12.3 °C 9.3 °F /  -12.6 °C 1027.3 in /  34784.4 hPa NE 4.8 mph /  7.7 km/h 8.0 mph /  12.9 km/h 97 % 0.0 in /  0 mm
08:02 9.8 °F /  -12.3 °C 9.3 °F /  -12.6 °C 1027.3 in /  34784.4 hPa NE 4.8 mph /  7.7 km/h 8.0 mph /  12.9 km/h 97 % 0.0 in /  0 mm
08:07 9.8 °F /  -12.3 °C 9.3 °F /  -12.6 °C 1027.3 in /  34784.4 hPa NE 4.8 mph /  7.7 km/h 8.0 mph /  12.9 km/h 97 % 0.0 in /  0 mm
08:12 9.8 °F /  -12.3 °C 9.3 °F /  -12.6 °C 1027.3 in /  34784.4 hPa NE 6.4 mph /  10.3 km/h 8.0 mph /  12.9 km/h 97 % 0.0 in /  0 mm
08:17 9.8 °F /  -12.3 °C 9.3 °F /  -12.6 °C 1027.3 in /  34784.4 hPa NNE 6.4 mph /  10.3 km/h 8.0 mph /  12.9 km/h 97 % 0.0 in /  0 mm
08:22 9.9 °F /  -12.3 °C 9.4 °F /  -12.6 °C 1027.3 in /  34784.4 hPa NNE 3.2 mph /  5.1 km/h 8.0 mph /  12.9 km/h 97 % 0.0 in /  0 mm
08:27 9.9 °F /  -12.3 °C 9.4 °F /  -12.6 °C 1027.3 in /  34784.4 hPa NE 3.2 mph /  5.1 km/h 8.0 mph /  12.9 km/h 97 % 0.0 in /  0 mm
08:32 10.1 °F /  -12.2 °C 9.6 °F /  -12.4 °C 1027.3 in /  34784.4 hPa NE 1.6 mph /  2.6 km/h 8.0 mph /  12.9 km/h 97 % 0.0 in /  0 mm
08:37 10.2 °F /  -12.1 °C 9.7 °F /  -12.4 °C 1027.3 in /  34784.4 hPa NE 1.6 mph /  2.6 km/h 8.0 mph /  12.9 km/h 97 % 0.0 in /  0 mm
08:42 10.3 °F /  -12.1 °C 9.8 °F /  -12.3 °C 1027.3 in /  34784.4 hPa NE 4.8 mph /  7.7 km/h 8.0 mph /  12.9 km/h 97 % 0.0 in /  0 mm
08:47 10.4 °F /  -12 °C 9.9 °F /  -12.3 °C 1027.3 in /  34784.4 hPa NNE 4.8 mph /  7.7 km/h 6.4 mph /  10.3 km/h 97 % 0.0 in /  0 mm
08:52 10.6 °F /  -11.9 °C 10.0 °F /  -12.2 °C 1027.3 in /  34784.4 hPa ENE 4.8 mph /  7.7 km/h 6.4 mph /  10.3 km/h 96 % 0.0 in /  0 mm
08:57 10.7 °F /  -11.8 °C 10.1 °F /  -12.2 °C 1027.7 in /  34797.9 hPa ENE 6.4 mph /  10.3 km/h 9.7 mph /  15.6 km/h 96 % 0.0 in /  0 mm
09:02 10.8 °F /  -11.8 °C 10.2 °F /  -12.1 °C 1027.3 in /  34784.4 hPa ENE 1.6 mph /  2.6 km/h 9.7 mph /  15.6 km/h 96 % 0.0 in /  0 mm
09:12 11.1 °F /  -11.6 °C 10.2 °F /  -12.1 °C 1027.7 in /  34797.9 hPa ENE 1.6 mph /  2.6 km/h 8.0 mph /  12.9 km/h 94 % 0.0 in /  0 mm
09:17 11.2 °F /  -11.6 °C 10.3 °F /  -12.1 °C 1027.7 in /  34797.9 hPa East 4.8 mph /  7.7 km/h 6.4 mph /  10.3 km/h 94 % 0.0 in /  0 mm
09:22 11.2 °F /  -11.6 °C 10.3 °F /  -12.1 °C 1027.7 in /  34797.9 hPa ENE 6.4 mph /  10.3 km/h 6.4 mph /  10.3 km/h 94 % 0.0 in /  0 mm
09:27 11.2 °F /  -11.6 °C 10.1 °F /  -12.2 °C 1027.7 in /  34797.9 hPa ENE 3.2 mph /  5.1 km/h 8.0 mph /  12.9 km/h 93 % 0.0 in /  0 mm
09:32 11.3 °F /  -11.5 °C 10.2 °F /  -12.1 °C 1027.7 in /  34797.9 hPa East 4.8 mph /  7.7 km/h 8.0 mph /  12.9 km/h 93 % 0.0 in /  0 mm
09:37 11.4 °F /  -11.4 °C 10.3 °F /  -12.1 °C 1027.7 in /  34797.9 hPa Calm   8.0 mph /  12.9 km/h 93 % 0.0 in /  0 mm
09:42 11.5 °F /  -11.4 °C 10.2 °F /  -12.1 °C 1027.7 in /  34797.9 hPa NE 8.0 mph /  12.9 km/h 8.0 mph /  12.9 km/h 92 % 0.0 in /  0 mm
09:47 11.4 °F /  -11.4 °C 10.0 °F /  -12.2 °C 1027.7 in /  34797.9 hPa NE 3.2 mph /  5.1 km/h 8.0 mph /  12.9 km/h 91 % 0.0 in /  0 mm
09:52 11.4 °F /  -11.4 °C 10.1 °F /  -12.2 °C 1027.7 in /  34797.9 hPa NNE 3.2 mph /  5.1 km/h 8.0 mph /  12.9 km/h 92 % 0.0 in /  0 mm
09:57 11.3 °F /  -11.5 °C 9.9 °F /  -12.3 °C 1027.7 in /  34797.9 hPa NE 3.2 mph /  5.1 km/h 11.3 mph /  18.2 km/h 91 % 0.0 in /  0 mm
10:02 11.3 °F /  -11.5 °C 9.9 °F /  -12.3 °C 1027.7 in /  34797.9 hPa NE 4.8 mph /  7.7 km/h 11.3 mph /  18.2 km/h 91 % 0.0 in /  0 mm
10:07 11.4 °F /  -11.4 °C 10.0 °F /  -12.2 °C 1027.7 in /  34797.9 hPa NE 4.8 mph /  7.7 km/h 14.5 mph /  23.3 km/h 91 % 0.0 in /  0 mm
10:12 11.5 °F /  -11.4 °C 9.7 °F /  -12.4 °C 1027.7 in /  34797.9 hPa ENE 6.4 mph /  10.3 km/h 14.5 mph /  23.3 km/h 89 % 0.0 in /  0 mm
10:17 11.5 °F /  -11.4 °C 9.7 °F /  -12.4 °C 1027.7 in /  34797.9 hPa NE 6.4 mph /  10.3 km/h 14.5 mph /  23.3 km/h 89 % 0.0 in /  0 mm
10:22 11.5 °F /  -11.4 °C 9.7 °F /  -12.4 °C 1027.7 in /  34797.9 hPa NNE 8.0 mph /  12.9 km/h 14.5 mph /  23.3 km/h 89 % 0.0 in /  0 mm
10:32 11.4 °F /  -11.4 °C 9.8 °F /  -12.3 °C 1027.7 in /  34797.9 hPa NNE 9.7 mph /  15.6 km/h 11.3 mph /  18.2 km/h 90 % 0.0 in /  0 mm
10:37 11.6 °F /  -11.3 °C 10.0 °F /  -12.2 °C 1027.7 in /  34797.9 hPa NNE 1.6 mph /  2.6 km/h 11.3 mph /  18.2 km/h 90 % 0.0 in /  0 mm
10:42 11.7 °F /  -11.3 °C 9.9 °F /  -12.3 °C 1027.7 in /  34797.9 hPa NNE 6.4 mph /  10.3 km/h 11.3 mph /  18.2 km/h 89 % 0.0 in /  0 mm
10:47 11.8 °F /  -11.2 °C 10.0 °F /  -12.2 °C 1027.7 in /  34797.9 hPa East 4.8 mph /  7.7 km/h 9.7 mph /  15.6 km/h 89 % 0.0 in /  0 mm
10:52 11.9 °F /  -11.2 °C 10.0 °F /  -12.2 °C 1027.7 in /  34797.9 hPa NE 6.4 mph /  10.3 km/h 9.7 mph /  15.6 km/h 88 % 0.0 in /  0 mm
10:57 12.1 °F /  -11.1 °C 10.2 °F /  -12.1 °C 1027.7 in /  34797.9 hPa NE 8.0 mph /  12.9 km/h 9.7 mph /  15.6 km/h 88 % 0.0 in /  0 mm
11:02 12.1 °F /  -11.1 °C 10.0 °F /  -12.2 °C 1027.7 in /  34797.9 hPa East 6.4 mph /  10.3 km/h 14.5 mph /  23.3 km/h 87 % 0.0 in /  0 mm
11:12 12.2 °F /  -11 °C 9.9 °F /  -12.3 °C 1027.7 in /  34797.9 hPa NNW 4.8 mph /  7.7 km/h 14.5 mph /  23.3 km/h 86 % 0.0 in /  0 mm
11:17 12.2 °F /  -11 °C 9.9 °F /  -12.3 °C 1027.7 in /  34797.9 hPa NE 3.2 mph /  5.1 km/h 12.9 mph /  20.8 km/h 86 % 0.0 in /  0 mm
11:22 12.4 °F /  -10.9 °C 9.9 °F /  -12.3 °C 1027.7 in /  34797.9 hPa NE 4.8 mph /  7.7 km/h 11.3 mph /  18.2 km/h 85 % 0.0 in /  0 mm
11:27 12.3 °F /  -10.9 °C 9.7 °F /  -12.4 °C 1027.7 in /  34797.9 hPa NNE 1.6 mph /  2.6 km/h 11.3 mph /  18.2 km/h 84 % 0.0 in /  0 mm
11:32 12.5 °F /  -10.8 °C 10.0 °F /  -12.2 °C 1027.7 in /  34797.9 hPa Calm   11.3 mph /  18.2 km/h 85 % 0.0 in /  0 mm
11:37 12.5 °F /  -10.8 °C 9.7 °F /  -12.4 °C 1027.7 in /  34797.9 hPa NNE 9.7 mph /  15.6 km/h 11.3 mph /  18.2 km/h 83 % 0.0 in /  0 mm
11:42 12.4 °F /  -10.9 °C 9.8 °F /  -12.3 °C 1027.3 in /  34784.4 hPa NNE 1.6 mph /  2.6 km/h 14.5 mph /  23.3 km/h 84 % 0.0 in /  0 mm
11:47 12.4 °F /  -10.9 °C 9.4 °F /  -12.6 °C 1027.3 in /  34784.4 hPa NNE 4.8 mph /  7.7 km/h 14.5 mph /  23.3 km/h 82 % 0.0 in /  0 mm
11:52 12.6 °F /  -10.8 °C 9.8 °F /  -12.3 °C 1027.3 in /  34784.4 hPa NE 4.8 mph /  7.7 km/h 14.5 mph /  23.3 km/h 83 % 0.0 in /  0 mm
11:57 12.6 °F /  -10.8 °C 9.8 °F /  -12.3 °C 1027.3 in /  34784.4 hPa NNE 4.8 mph /  7.7 km/h 11.3 mph /  18.2 km/h 83 % 0.0 in /  0 mm
12:02 12.8 °F /  -10.7 °C 10.0 °F /  -12.2 °C 1027.3 in /  34784.4 hPa NNE 8.0 mph /  12.9 km/h 11.3 mph /  18.2 km/h 83 % 0.0 in /  0 mm
12:07 12.8 °F /  -10.7 °C 9.6 °F /  -12.4 °C 1027.0 in /  34774.2 hPa Calm   14.5 mph /  23.3 km/h 81 % 0.0 in /  0 mm
12:12 12.9 °F /  -10.6 °C 9.7 °F /  -12.4 °C 1027.0 in /  34774.2 hPa ENE 3.2 mph /  5.1 km/h 14.5 mph /  23.3 km/h 81 % 0.0 in /  0 mm
12:17 12.9 °F /  -10.6 °C 9.9 °F /  -12.3 °C 1027.0 in /  34774.2 hPa North 1.6 mph /  2.6 km/h 12.9 mph /  20.8 km/h 82 % 0.0 in /  0 mm
12:22 13.2 °F /  -10.4 °C 10.0 °F /  -12.2 °C 1027.0 in /  34774.2 hPa North 8.0 mph /  12.9 km/h 12.9 mph /  20.8 km/h 81 % 0.0 in /  0 mm
12:32 13.0 °F /  -10.6 °C 9.6 °F /  -12.4 °C 1027.0 in /  34774.2 hPa NNE 6.4 mph /  10.3 km/h 14.5 mph /  23.3 km/h 80 % 0.0 in /  0 mm
12:37 13.2 °F /  -10.4 °C 9.6 °F /  -12.4 °C 1027.0 in /  34774.2 hPa North 4.8 mph /  7.7 km/h 16.1 mph /  25.9 km/h 79 % 0.0 in /  0 mm
12:42 13.4 °F /  -10.3 °C 9.6 °F /  -12.4 °C 1027.0 in /  34774.2 hPa NNE 4.8 mph /  7.7 km/h 16.1 mph /  25.9 km/h 78 % 0.0 in /  0 mm
12:47 13.4 °F /  -10.3 °C 9.6 °F /  -12.4 °C 1026.6 in /  34760.7 hPa North 3.2 mph /  5.1 km/h 8.0 mph /  12.9 km/h 78 % 0.0 in /  0 mm
12:52 13.6 °F /  -10.2 °C 9.8 °F /  -12.3 °C 1026.6 in /  34760.7 hPa NNE 8.0 mph /  12.9 km/h 8.0 mph /  12.9 km/h 78 % 0.0 in /  0 mm
12:57 13.4 °F /  -10.3 °C 9.4 °F /  -12.6 °C 1026.6 in /  34760.7 hPa Calm   9.7 mph /  15.6 km/h 77 % 0.0 in /  0 mm
13:02 13.5 °F /  -10.3 °C 9.5 °F /  -12.5 °C 1026.6 in /  34760.7 hPa NE 6.4 mph /  10.3 km/h 9.7 mph /  15.6 km/h 77 % 0.0 in /  0 mm
13:07 13.4 °F /  -10.3 °C 9.6 °F /  -12.4 °C 1026.6 in /  34760.7 hPa NE 6.4 mph /  10.3 km/h 14.5 mph /  23.3 km/h 78 % 0.0 in /  0 mm
13:12 13.7 °F /  -10.2 °C 9.9 °F /  -12.3 °C 1026.3 in /  34750.5 hPa NNE 8.0 mph /  12.9 km/h 14.5 mph /  23.3 km/h 78 % 0.0 in /  0 mm
13:17 13.7 °F /  -10.2 °C 9.5 °F /  -12.5 °C 1026.3 in /  34750.5 hPa NNE 4.8 mph /  7.7 km/h 11.3 mph /  18.2 km/h 76 % 0.0 in /  0 mm
13:22 13.9 °F /  -10.1 °C 9.7 °F /  -12.4 °C 1026.3 in /  34750.5 hPa NE 8.0 mph /  12.9 km/h 12.9 mph /  20.8 km/h 76 % 0.0 in /  0 mm
13:27 14.1 °F /  -9.9 °C 10.1 °F /  -12.2 °C 1026.0 in /  34740.4 hPa NE 11.3 mph /  18.2 km/h 12.9 mph /  20.8 km/h 77 % 0.0 in /  0 mm
13:32 13.9 °F /  -10.1 °C 9.5 °F /  -12.5 °C 1026.0 in /  34740.4 hPa NE 8.0 mph /  12.9 km/h 12.9 mph /  20.8 km/h 75 % 0.0 in /  0 mm
13:37 13.9 °F /  -10.1 °C 9.5 °F /  -12.5 °C 1026.0 in /  34740.4 hPa ENE 6.4 mph /  10.3 km/h 12.9 mph /  20.8 km/h 75 % 0.0 in /  0 mm
13:42 14.1 °F /  -9.9 °C 9.3 °F /  -12.6 °C 1026.0 in /  34740.4 hPa ENE 8.0 mph /  12.9 km/h 12.9 mph /  20.8 km/h 73 % 0.0 in /  0 mm
13:47 14.1 °F /  -9.9 °C 9.3 °F /  -12.6 °C 1026.0 in /  34740.4 hPa East 4.8 mph /  7.7 km/h 11.3 mph /  18.2 km/h 73 % 0.0 in /  0 mm
13:52 14.3 °F /  -9.8 °C 9.3 °F /  -12.6 °C 1026.0 in /  34740.4 hPa East 4.8 mph /  7.7 km/h 11.3 mph /  18.2 km/h 72 % 0.0 in /  0 mm
13:57 14.3 °F /  -9.8 °C 9.7 °F /  -12.4 °C 1026.0 in /  34740.4 hPa NE 6.4 mph /  10.3 km/h 9.7 mph /  15.6 km/h 74 % 0.0 in /  0 mm
14:02 14.3 °F /  -9.8 °C 9.3 °F /  -12.6 °C 1026.0 in /  34740.4 hPa NNW 4.8 mph /  7.7 km/h 9.7 mph /  15.6 km/h 72 % 0.0 in /  0 mm
14:12 14.6 °F /  -9.7 °C 9.4 °F /  -12.6 °C 1025.6 in /  34726.8 hPa ENE 6.4 mph /  10.3 km/h 11.3 mph /  18.2 km/h 71 % 0.0 in /  0 mm
14:17 14.7 °F /  -9.6 °C 9.1 °F /  -12.7 °C 1025.6 in /  34726.8 hPa NNE 6.4 mph /  10.3 km/h 11.3 mph /  18.2 km/h 69 % 0.0 in /  0 mm
14:22 14.7 °F /  -9.6 °C 9.5 °F /  -12.5 °C 1025.3 in /  34716.7 hPa NE 1.6 mph /  2.6 km/h 11.3 mph /  18.2 km/h 71 % 0.0 in /  0 mm
14:32 14.8 °F /  -9.6 °C 9.6 °F /  -12.4 °C 1025.3 in /  34716.7 hPa Calm   16.1 mph /  25.9 km/h 71 % 0.0 in /  0 mm
14:37 14.9 °F /  -9.5 °C 9.5 °F /  -12.5 °C 1025.3 in /  34716.7 hPa ENE 6.4 mph /  10.3 km/h 16.1 mph /  25.9 km/h 70 % 0.0 in /  0 mm
14:42 14.9 °F /  -9.5 °C 9.7 °F /  -12.4 °C 1025.3 in /  34716.7 hPa East 6.4 mph /  10.3 km/h 11.3 mph /  18.2 km/h 71 % 0.0 in /  0 mm
14:47 15.0 °F /  -9.4 °C 8.9 °F /  -12.8 °C 1025.3 in /  34716.7 hPa East 3.2 mph /  5.1 km/h 11.3 mph /  18.2 km/h 67 % 0.0 in /  0 mm
14:52 15.0 °F /  -9.4 °C 9.1 °F /  -12.7 °C 1025.3 in /  34716.7 hPa ENE 3.2 mph /  5.1 km/h 8.0 mph /  12.9 km/h 68 % 0.0 in /  0 mm
14:57 15.0 °F /  -9.4 °C 9.1 °F /  -12.7 °C 1025.3 in /  34716.7 hPa NNW 3.2 mph /  5.1 km/h 11.3 mph /  18.2 km/h 68 % 0.0 in /  0 mm
15:02 15.1 °F /  -9.4 °C 9.2 °F /  -12.7 °C 1025.3 in /  34716.7 hPa North 6.4 mph /  10.3 km/h 11.3 mph /  18.2 km/h 68 % 0.0 in /  0 mm
15:07 15.2 °F /  -9.3 °C 9.1 °F /  -12.7 °C 1025.3 in /  34716.7 hPa Calm   11.3 mph /  18.2 km/h 67 % 0.0 in /  0 mm
15:12 15.4 °F /  -9.2 °C 9.3 °F /  -12.6 °C 1025.3 in /  34716.7 hPa East 4.8 mph /  7.7 km/h 9.7 mph /  15.6 km/h 67 % 0.0 in /  0 mm
15:17 15.5 °F /  -9.2 °C 8.9 °F /  -12.8 °C 1025.3 in /  34716.7 hPa NE 3.2 mph /  5.1 km/h 9.7 mph /  15.6 km/h 65 % 0.0 in /  0 mm
15:22 15.5 °F /  -9.2 °C 8.9 °F /  -12.8 °C 1024.9 in /  34703.1 hPa East 3.2 mph /  5.1 km/h 8.0 mph /  12.9 km/h 65 % 0.0 in /  0 mm
15:27 15.4 °F /  -9.2 °C 8.9 °F /  -12.8 °C 1024.9 in /  34703.1 hPa NE 6.4 mph /  10.3 km/h 8.0 mph /  12.9 km/h 65 % 0.0 in /  0 mm
15:32 15.3 °F /  -9.3 °C 9.0 °F /  -12.8 °C 1024.9 in /  34703.1 hPa NE 3.2 mph /  5.1 km/h 11.3 mph /  18.2 km/h 66 % 0.0 in /  0 mm
15:37 15.3 °F /  -9.3 °C 8.8 °F /  -12.9 °C 1024.9 in /  34703.1 hPa NNW 3.2 mph /  5.1 km/h 12.9 mph /  20.8 km/h 65 % 0.0 in /  0 mm
15:42 15.4 °F /  -9.2 °C 8.9 °F /  -12.8 °C 1024.9 in /  34703.1 hPa ENE 3.2 mph /  5.1 km/h 12.9 mph /  20.8 km/h 65 % 0.0 in /  0 mm
15:47 15.4 °F /  -9.2 °C 9.1 °F /  -12.7 °C 1024.9 in /  34703.1 hPa NE 4.8 mph /  7.7 km/h 9.7 mph /  15.6 km/h 66 % 0.0 in /  0 mm
15:52 15.4 °F /  -9.2 °C 9.3 °F /  -12.6 °C 1024.9 in /  34703.1 hPa Calm   8.0 mph /  12.9 km/h 67 % 0.0 in /  0 mm
15:57 15.6 °F /  -9.1 °C 9.3 °F /  -12.6 °C 1024.6 in /  34693 hPa East 3.2 mph /  5.1 km/h 8.0 mph /  12.9 km/h 66 % 0.0 in /  0 mm
16:02 15.6 °F /  -9.1 °C 9.3 °F /  -12.6 °C 1024.6 in /  34693 hPa NE 3.2 mph /  5.1 km/h 8.0 mph /  12.9 km/h 66 % 0.0 in /  0 mm
16:12 15.6 °F /  -9.1 °C 9.3 °F /  -12.6 °C 1024.6 in /  34693 hPa East 1.6 mph /  2.6 km/h 9.7 mph /  15.6 km/h 66 % 0.0 in /  0 mm
16:17 15.6 °F /  -9.1 °C 9.3 °F /  -12.6 °C 1024.6 in /  34693 hPa NE 4.8 mph /  7.7 km/h 9.7 mph /  15.6 km/h 66 % 0.0 in /  0 mm
16:22 15.5 °F /  -9.2 °C 9.2 °F /  -12.7 °C 1024.6 in /  34693 hPa NE 3.2 mph /  5.1 km/h 11.3 mph /  18.2 km/h 66 % 0.0 in /  0 mm
16:27 15.6 °F /  -9.1 °C 9.3 °F /  -12.6 °C 1024.6 in /  34693 hPa NE 8.0 mph /  12.9 km/h 11.3 mph /  18.2 km/h 66 % 0.0 in /  0 mm
16:32 15.6 °F /  -9.1 °C 9.5 °F /  -12.5 °C 1024.6 in /  34693 hPa NE 3.2 mph /  5.1 km/h 11.3 mph /  18.2 km/h 67 % 0.0 in /  0 mm
16:37 15.6 °F /  -9.1 °C 9.0 °F /  -12.8 °C 1024.6 in /  34693 hPa NNE 9.7 mph /  15.6 km/h 11.3 mph /  18.2 km/h 65 % 0.0 in /  0 mm
16:42 15.5 °F /  -9.2 °C 8.5 °F /  -13.1 °C 1024.6 in /  34693 hPa NE 9.7 mph /  15.6 km/h 12.9 mph /  20.8 km/h 63 % 0.0 in /  0 mm
16:47 15.4 °F /  -9.2 °C 7.9 °F /  -13.4 °C 1024.3 in /  34682.8 hPa North 8.0 mph /  12.9 km/h 14.5 mph /  23.3 km/h 61 % 0.0 in /  0 mm
16:52 15.4 °F /  -9.2 °C 7.9 °F /  -13.4 °C 1024.3 in /  34682.8 hPa NNE 3.2 mph /  5.1 km/h 14.5 mph /  23.3 km/h 61 % 0.0 in /  0 mm
16:57 15.4 °F /  -9.2 °C 7.9 °F /  -13.4 °C 1024.3 in /  34682.8 hPa NNE 8.0 mph /  12.9 km/h 14.5 mph /  23.3 km/h 61 % 0.0 in /  0 mm
17:02 15.4 °F /  -9.2 °C 7.9 °F /  -13.4 °C 1024.3 in /  34682.8 hPa NNW 6.4 mph /  10.3 km/h 14.5 mph /  23.3 km/h 61 % 0.0 in /  0 mm
17:07 15.4 °F /  -9.2 °C 7.9 °F /  -13.4 °C 1024.3 in /  34682.8 hPa NE 3.2 mph /  5.1 km/h 11.3 mph /  18.2 km/h 61 % 0.0 in /  0 mm
17:12 15.3 °F /  -9.3 °C 7.3 °F /  -13.7 °C 1023.9 in /  34669.3 hPa NE 9.7 mph /  15.6 km/h 11.3 mph /  18.2 km/h 59 % 0.0 in /  0 mm
17:17 15.3 °F /  -9.3 °C 7.8 °F /  -13.4 °C 1023.9 in /  34669.3 hPa NE 4.8 mph /  7.7 km/h 12.9 mph /  20.8 km/h 61 % 0.0 in /  0 mm
17:22 15.4 °F /  -9.2 °C 8.6 °F /  -13 °C 1023.9 in /  34669.3 hPa NE 8.0 mph /  12.9 km/h 12.9 mph /  20.8 km/h 64 % 0.0 in /  0 mm
17:32 15.2 °F /  -9.3 °C 8.2 °F /  -13.2 °C 1023.9 in /  34669.3 hPa ENE 8.0 mph /  12.9 km/h 14.5 mph /  23.3 km/h 63 % 0.0 in /  0 mm
17:42 15.1 °F /  -9.4 °C 8.6 °F /  -13 °C 1024.3 in /  34682.8 hPa East 3.2 mph /  5.1 km/h 14.5 mph /  23.3 km/h 65 % 0.0 in /  0 mm
17:52 14.8 °F /  -9.6 °C 8.7 °F /  -12.9 °C 1023.9 in /  34669.3 hPa ENE 1.6 mph /  2.6 km/h 12.9 mph /  20.8 km/h 67 % 0.0 in /  0 mm
17:57 14.7 °F /  -9.6 °C 8.9 °F /  -12.8 °C 1024.3 in /  34682.8 hPa NNE 3.2 mph /  5.1 km/h 11.3 mph /  18.2 km/h 68 % 0.0 in /  0 mm
18:02 14.6 °F /  -9.7 °C 8.1 °F /  -13.3 °C 1023.9 in /  34669.3 hPa North 4.8 mph /  7.7 km/h 11.3 mph /  18.2 km/h 65 % 0.0 in /  0 mm
18:12 14.3 °F /  -9.8 °C 8.3 °F /  -13.2 °C 1024.3 in /  34682.8 hPa NE 3.2 mph /  5.1 km/h 11.3 mph /  18.2 km/h 67 % 0.0 in /  0 mm
18:17 14.1 °F /  -9.9 °C 8.1 °F /  -13.3 °C 1023.9 in /  34669.3 hPa NE 3.2 mph /  5.1 km/h 9.7 mph /  15.6 km/h 67 % 0.0 in /  0 mm
18:22 14.0 °F /  -10 °C 8.0 °F /  -13.3 °C 1023.9 in /  34669.3 hPa NE 6.4 mph /  10.3 km/h 9.7 mph /  15.6 km/h 67 % 0.0 in /  0 mm
18:32 13.8 °F /  -10.1 °C 8.0 °F /  -13.3 °C 1024.3 in /  34682.8 hPa NNE 6.4 mph /  10.3 km/h 9.7 mph /  15.6 km/h 68 % 0.0 in /  0 mm
18:37 13.7 °F /  -10.2 °C 7.9 °F /  -13.4 °C 1023.9 in /  34669.3 hPa NE 6.4 mph /  10.3 km/h 8.0 mph /  12.9 km/h 68 % 0.0 in /  0 mm
18:42 13.6 °F /  -10.2 °C 7.8 °F /  -13.4 °C 1023.9 in /  34669.3 hPa NE 4.8 mph /  7.7 km/h 8.0 mph /  12.9 km/h 68 % 0.0 in /  0 mm
18:47 13.5 °F /  -10.3 °C 7.7 °F /  -13.5 °C 1023.9 in /  34669.3 hPa NE 4.8 mph /  7.7 km/h 8.0 mph /  12.9 km/h 68 % 0.0 in /  0 mm
18:52 13.4 °F /  -10.3 °C 7.8 °F /  -13.4 °C 1023.9 in /  34669.3 hPa NE 3.2 mph /  5.1 km/h 8.0 mph /  12.9 km/h 69 % 0.0 in /  0 mm
18:57 13.2 °F /  -10.4 °C 8.1 °F /  -13.3 °C 1023.9 in /  34669.3 hPa NNE 6.4 mph /  10.3 km/h 8.0 mph /  12.9 km/h 71 % 0.0 in /  0 mm
19:02 13.1 °F /  -10.5 °C 8.0 °F /  -13.3 °C 1023.9 in /  34669.3 hPa NE 4.8 mph /  7.7 km/h 9.7 mph /  15.6 km/h 71 % 0.0 in /  0 mm
19:12 12.9 °F /  -10.6 °C 7.8 °F /  -13.4 °C 1023.9 in /  34669.3 hPa NNE 6.4 mph /  10.3 km/h 9.7 mph /  15.6 km/h 71 % 0.0 in /  0 mm
19:17 12.7 °F /  -10.7 °C 7.8 °F /  -13.4 °C 1023.9 in /  34669.3 hPa North 3.2 mph /  5.1 km/h 8.0 mph /  12.9 km/h 72 % 0.0 in /  0 mm
19:22 12.4 °F /  -10.9 °C 7.7 °F /  -13.5 °C 1024.3 in /  34682.8 hPa NNE 4.8 mph /  7.7 km/h 8.0 mph /  12.9 km/h 73 % 0.0 in /  0 mm
19:27 12.3 °F /  -10.9 °C 7.8 °F /  -13.4 °C 1024.3 in /  34682.8 hPa NNE 6.4 mph /  10.3 km/h 8.0 mph /  12.9 km/h 74 % 0.0 in /  0 mm
19:32 12.4 °F /  -10.9 °C 7.5 °F /  -13.6 °C 1024.3 in /  34682.8 hPa NNE 4.8 mph /  7.7 km/h 8.0 mph /  12.9 km/h 72 % 0.0 in /  0 mm
19:37 12.4 °F /  -10.9 °C 7.5 °F /  -13.6 °C 1024.3 in /  34682.8 hPa NE 6.4 mph /  10.3 km/h 8.0 mph /  12.9 km/h 72 % 0.0 in /  0 mm
19:42 12.4 °F /  -10.9 °C 7.5 °F /  -13.6 °C 1024.3 in /  34682.8 hPa NNE 6.4 mph /  10.3 km/h 9.7 mph /  15.6 km/h 72 % 0.0 in /  0 mm
19:47 12.4 °F /  -10.9 °C 7.5 °F /  -13.6 °C 1024.3 in /  34682.8 hPa NNE 4.8 mph /  7.7 km/h 9.7 mph /  15.6 km/h 72 % 0.0 in /  0 mm
19:52 12.1 °F /  -11.1 °C 7.4 °F /  -13.7 °C 1024.3 in /  34682.8 hPa NE 3.2 mph /  5.1 km/h 9.7 mph /  15.6 km/h 73 % 0.0 in /  0 mm
19:57 11.8 °F /  -11.2 °C 7.3 °F /  -13.7 °C 1024.3 in /  34682.8 hPa North 1.6 mph /  2.6 km/h 9.7 mph /  15.6 km/h 74 % 0.0 in /  0 mm
20:02 11.6 °F /  -11.3 °C 7.3 °F /  -13.7 °C 1024.3 in /  34682.8 hPa NE 3.2 mph /  5.1 km/h 8.0 mph /  12.9 km/h 75 % 0.0 in /  0 mm
20:07 11.4 °F /  -11.4 °C 7.3 °F /  -13.7 °C 1024.3 in /  34682.8 hPa NNE 3.2 mph /  5.1 km/h 6.4 mph /  10.3 km/h 76 % 0.0 in /  0 mm
20:12 11.2 °F /  -11.6 °C 7.3 °F /  -13.7 °C 1024.3 in /  34682.8 hPa NNE 1.6 mph /  2.6 km/h 4.8 mph /  7.7 km/h 77 % 0.0 in /  0 mm
20:17 11.1 °F /  -11.6 °C 7.2 °F /  -13.8 °C 1024.3 in /  34682.8 hPa Calm   4.8 mph /  7.7 km/h 77 % 0.0 in /  0 mm
20:22 10.9 °F /  -11.7 °C 7.2 °F /  -13.8 °C 1024.3 in /  34682.8 hPa NE 1.6 mph /  2.6 km/h 3.2 mph /  5.1 km/h 78 % 0.0 in /  0 mm
20:27 10.8 °F /  -11.8 °C 7.3 °F /  -13.7 °C 1024.3 in /  34682.8 hPa Calm   4.8 mph /  7.7 km/h 79 % 0.0 in /  0 mm
20:32 10.7 °F /  -11.8 °C 7.2 °F /  -13.8 °C 1024.3 in /  34682.8 hPa Calm   4.8 mph /  7.7 km/h 79 % 0.0 in /  0 mm
20:37 10.6 °F /  -11.9 °C 7.1 °F /  -13.8 °C 1023.9 in /  34669.3 hPa Calm   4.8 mph /  7.7 km/h 79 % 0.0 in /  0 mm
20:42 10.4 °F /  -12 °C 7.1 °F /  -13.8 °C 1024.3 in /  34682.8 hPa NNE 1.6 mph /  2.6 km/h 3.2 mph /  5.1 km/h 80 % 0.0 in /  0 mm
20:47 10.4 °F /  -12 °C 6.9 °F /  -13.9 °C 1023.9 in /  34669.3 hPa Calm   3.2 mph /  5.1 km/h 79 % 0.0 in /  0 mm
20:52 10.4 °F /  -12 °C 6.9 °F /  -13.9 °C 1024.3 in /  34682.8 hPa Calm   3.2 mph /  5.1 km/h 79 % 0.0 in /  0 mm
20:57 10.3 °F /  -12.1 °C 6.8 °F /  -14 °C 1023.9 in /  34669.3 hPa Calm   4.8 mph /  7.7 km/h 79 % 0.0 in /  0 mm
21:02 10.3 °F /  -12.1 °C 7.0 °F /  -13.9 °C 1023.9 in /  34669.3 hPa Calm   4.8 mph /  7.7 km/h 80 % 0.0 in /  0 mm
21:12 10.1 °F /  -12.2 °C 6.8 °F /  -14 °C 1023.6 in /  34659.1 hPa Calm   4.8 mph /  7.7 km/h 80 % 0.0 in /  0 mm
21:17 10.1 °F /  -12.2 °C 6.8 °F /  -14 °C 1023.9 in /  34669.3 hPa Calm   4.8 mph /  7.7 km/h 80 % 0.0 in /  0 mm
21:22 10.1 °F /  -12.2 °C 6.8 °F /  -14 °C 1023.9 in /  34669.3 hPa Calm   4.8 mph /  7.7 km/h 80 % 0.0 in /  0 mm
21:27 10.1 °F /  -12.2 °C 6.8 °F /  -14 °C 1023.9 in /  34669.3 hPa Calm   3.2 mph /  5.1 km/h 80 % 0.0 in /  0 mm
21:32 10.1 °F /  -12.2 °C 6.8 °F /  -14 °C 1023.9 in /  34669.3 hPa NNW 1.6 mph /  2.6 km/h 3.2 mph /  5.1 km/h 80 % 0.0 in /  0 mm
21:37 9.9 °F /  -12.3 °C 6.6 °F /  -14.1 °C 1023.9 in /  34669.3 hPa Calm   3.2 mph /  5.1 km/h 80 % 0.0 in /  0 mm
21:42 9.8 °F /  -12.3 °C 6.7 °F /  -14.1 °C 1023.9 in /  34669.3 hPa Calm   1.6 mph /  2.6 km/h 81 % 0.0 in /  0 mm
21:47 9.8 °F /  -12.3 °C 6.7 °F /  -14.1 °C 1023.9 in /  34669.3 hPa Calm   4.8 mph /  7.7 km/h 81 % 0.0 in /  0 mm
21:52 9.7 °F /  -12.4 °C 6.6 °F /  -14.1 °C 1023.9 in /  34669.3 hPa Calm   4.8 mph /  7.7 km/h 81 % 0.0 in /  0 mm
21:57 9.7 °F /  -12.4 °C 6.6 °F /  -14.1 °C 1023.9 in /  34669.3 hPa Calm   1.6 mph /  2.6 km/h 81 % 0.0 in /  0 mm
22:02 9.7 °F /  -12.4 °C 6.6 °F /  -14.1 °C 1023.9 in /  34669.3 hPa Calm   1.6 mph /  2.6 km/h 81 % 0.0 in /  0 mm
22:12 9.7 °F /  -12.4 °C 6.6 °F /  -14.1 °C 1023.6 in /  34659.1 hPa NNE 3.2 mph /  5.1 km/h 4.8 mph /  7.7 km/h 81 % 0.0 in /  0 mm
22:17 9.7 °F /  -12.4 °C 6.6 °F /  -14.1 °C 1023.6 in /  34659.1 hPa Calm   4.8 mph /  7.7 km/h 81 % 0.0 in /  0 mm
22:22 9.7 °F /  -12.4 °C 6.6 °F /  -14.1 °C 1023.6 in /  34659.1 hPa Calm   4.8 mph /  7.7 km/h 81 % 0.0 in /  0 mm
22:27 9.7 °F /  -12.4 °C 6.6 °F /  -14.1 °C 1023.6 in /  34659.1 hPa North 1.6 mph /  2.6 km/h 4.8 mph /  7.7 km/h 81 % 0.0 in /  0 mm
22:32 9.7 °F /  -12.4 °C 6.6 °F /  -14.1 °C 1023.6 in /  34659.1 hPa NNE 1.6 mph /  2.6 km/h 4.8 mph /  7.7 km/h 81 % 0.0 in /  0 mm
22:37 9.6 °F /  -12.4 °C 6.5 °F /  -14.2 °C 1023.6 in /  34659.1 hPa NNE 1.6 mph /  2.6 km/h 4.8 mph /  7.7 km/h 81 % 0.0 in /  0 mm
22:42 9.6 °F /  -12.4 °C 6.5 °F /  -14.2 °C 1023.6 in /  34659.1 hPa Calm   4.8 mph /  7.7 km/h 81 % 0.0 in /  0 mm
22:47 9.5 °F /  -12.5 °C 6.4 °F /  -14.2 °C 1023.6 in /  34659.1 hPa North 1.6 mph /  2.6 km/h 4.8 mph /  7.7 km/h 81 % 0.0 in /  0 mm
22:52 9.6 °F /  -12.4 °C 6.5 °F /  -14.2 °C 1023.6 in /  34659.1 hPa Calm   3.2 mph /  5.1 km/h 81 % 0.0 in /  0 mm
22:57 9.5 °F /  -12.5 °C 6.4 °F /  -14.2 °C 1023.6 in /  34659.1 hPa NNW 1.6 mph /  2.6 km/h 3.2 mph /  5.1 km/h 81 % 0.0 in /  0 mm
23:02 9.4 °F /  -12.6 °C 6.3 °F /  -14.3 °C 1023.6 in /  34659.1 hPa North 1.6 mph /  2.6 km/h 3.2 mph /  5.1 km/h 81 % 0.0 in /  0 mm
23:07 9.4 °F /  -12.6 °C 6.3 °F /  -14.3 °C 1023.6 in /  34659.1 hPa Calm   3.2 mph /  5.1 km/h 81 % 0.0 in /  0 mm
23:12 9.4 °F /  -12.6 °C 6.3 °F /  -14.3 °C 1023.6 in /  34659.1 hPa Calm   3.2 mph /  5.1 km/h 81 % 0.0 in /  0 mm
23:17 9.3 °F /  -12.6 °C 6.2 °F /  -14.3 °C 1023.2 in /  34645.6 hPa NE 3.2 mph /  5.1 km/h 3.2 mph /  5.1 km/h 81 % 0.0 in /  0 mm
23:22 9.4 °F /  -12.6 °C 6.3 °F /  -14.3 °C 1023.2 in /  34645.6 hPa NNE 1.6 mph /  2.6 km/h 6.4 mph /  10.3 km/h 81 % 0.0 in /  0 mm
23:27 9.4 °F /  -12.6 °C 6.1 °F /  -14.4 °C 1023.2 in /  34645.6 hPa NNE 1.6 mph /  2.6 km/h 6.4 mph /  10.3 km/h 80 % 0.0 in /  0 mm
23:32 9.3 °F /  -12.6 °C 6.2 °F /  -14.3 °C 1023.2 in /  34645.6 hPa Calm   6.4 mph /  10.3 km/h 81 % 0.0 in /  0 mm
23:37 9.2 °F /  -12.7 °C 6.1 °F /  -14.4 °C 1023.2 in /  34645.6 hPa Calm   4.8 mph /  7.7 km/h 81 % 0.0 in /  0 mm
23:42 9.2 °F /  -12.7 °C 6.1 °F /  -14.4 °C 1023.2 in /  34645.6 hPa Calm   1.6 mph /  2.6 km/h 81 % 0.0 in /  0 mm
23:47 9.2 °F /  -12.7 °C 6.1 °F /  -14.4 °C 1023.2 in /  34645.6 hPa ENE 1.6 mph /  2.6 km/h 1.6 mph /  2.6 km/h 81 % 0.0 in /  0 mm
23:52 9.2 °F /  -12.7 °C 5.9 °F /  -14.5 °C 1023.2 in /  34645.6 hPa Calm   1.6 mph /  2.6 km/h 80 % 0.0 in /  0 mm
23:57 9.1 °F /  -12.7 °C 5.8 °F /  -14.6 °C 1023.2 in /  34645.6 hPa Calm   1.6 mph /  2.6 km/h 80 % 0.0 in /  0 mm
Meteo18
Compliments of Weather Underground - 4 mb

Script developed by  Jim McMurry - jmcmurry@mwt.net Adapted for the template by  Wim van der Kuil - Leuven-Template.eu

You find our weather info also at:

European Weather Network

Weather Underground

Equipment we use:

Weather-station
Davis Vue

Weather-program
Meteobridge

Weather-server
Raspberry PI 2 B+

Provider
1 and 1

Davis Vue

Meteobridge

Raspberry PI 2 B+

1 and 1